TOP > 外国特許検索

外国特許検索

表示件数 詳細検索
特許の状態
出願国

リセット

該当件数 4775件

No. 出願番号
公報番号
出願国
発明の名称
掲載日
更新日
データ提供機関
2101 2007JP057138 WO 2008/029533 世界知的所有権機関(WIPO) NET MOUTH INCLINATION KEEPING TYPE TRAWL NET FISHERY SYSTEM 2012/10/09 2013/09/17 東京海洋大学
2102 2007JP071201 WO 2008/056580 世界知的所有権機関(WIPO) SUPERCONDUCTIVE ROTATING ELECTRIC MACHINE DRIVE CONTROL SYSTEM AND SUPERCONDUCTIVE ROTATING ELECTRIC MACHINE DRIVE CONTROL METHOD 2012/10/09 2012/10/09 東京海洋大学
2103 2007JP072659 WO 2008/062867 世界知的所有権機関(WIPO) DEVICE FOR DETECTING GRAVITY CENTER, DEVICE FOR PREDICTING CRITICAL SPEED FOR LATERAL OVERTURN, AND DEVICE FOR PREDICTING CARGO WEIGHT 2012/10/09 2013/09/17 東京海洋大学
2104 2008JP000743 WO 2008/129838 世界知的所有権機関(WIPO) GERM CELL MARKER USING FISH VASA GENE 2012/10/09 2012/10/09 東京海洋大学
2105 2008JP068954 WO 2009/057472 世界知的所有権機関(WIPO) METHOD OF ARTIFICIALLY FEEDING SHRIMP LARVAE AND FEEDING APPARATUS 2012/10/09 2013/09/17 東京海洋大学
2106 2009JP052411 WO 2009/102019 世界知的所有権機関(WIPO) ANTIOXIDATIVE COMPOSITION FOR FEED RAW MATERIAL 2012/10/09 2013/09/17 東京海洋大学
2107 2009JP067502 WO 2010/044365 世界知的所有権機関(WIPO) REAGENT KIT FOR MEASURING FRESHNESS 2012/10/10 2013/09/17 東京海洋大学
2108 2010JP051961 WO 2010/092980 世界知的所有権機関(WIPO) HIGH LIFT OTTER BOARD 2012/10/10 2012/10/10 東京海洋大学
2109 2010JP055236 WO 2010/110373 世界知的所有権機関(WIPO) GENE MARKER LINKED TO GENETIC SEX OF YELLOWTAIL, SEX DETERMINATION METHOD FOR YELLOWTAIL, AND PRIMER FOR USE IN SEX DETERMINATION METHOD 2012/10/10 2012/10/10 東京海洋大学
2110 2010JP002120 WO 2010/109874 世界知的所有権機関(WIPO) KOI HERPES VIRUS-SPECIFIC ANTIBODY AND ANTIGEN THEREOF 2012/10/10 2013/09/17 東京海洋大学
2111 2010JP059365 WO 2010/140627 世界知的所有権機関(WIPO) ROTARY JOINT FOR LOW-TEMPERATURE APPLICATION 2012/10/10 2013/09/17 東京海洋大学
2112 2010JP070425 WO 2011/062171 世界知的所有権機関(WIPO) FLOCCULATING AGENT STARTING MATERIAL USING BROWN ALGAE AS STARTING MATERIAL, FLOCCULATING AGENT USING SAID STARTING MATERIAL, PREPARATION METHOD FOR SAID FLOCCULATING AGENT, AND PURIFICATION METHOD USING SAID FLOCCULATING AGENT 2012/10/11 2012/10/11 東京海洋大学
2113 2010JP007060 WO 2011/067939 世界知的所有権機関(WIPO) INCLINATION COMPUTATION DEVICE 2012/10/11 2012/10/11 東京海洋大学
2114 2011JP001762 WO 2011/118225 世界知的所有権機関(WIPO) METHOD FOR ENGRAFTING GERM CELLS 2012/10/11 2012/10/11 東京海洋大学
2115 2011JP002734 WO 2011/145332 世界知的所有権機関(WIPO) CENTROID DETECTION DEVICE 2012/10/11 2013/09/17 東京海洋大学
2116 2011JP071900 WO 2012/043481 世界知的所有権機関(WIPO) COMPOSITION CONTAINING 2-ACYL-LYSOPHOSPHATIDYLSERINE AND METHOD FOR PRODUCING SAME 2012/10/12 2012/10/12 東京海洋大学
2117 2012JP058685 WO 2012/133823 世界知的所有権機関(WIPO) NOVEL USEFUL DEEP-SEA BACTERIA 2012/10/17 2012/10/17 東京海洋大学
2118 2012JP073681 WO 2013/039222 世界知的所有権機関(WIPO) UNDERWATER COMMUNICATION SYSTEM 2013/04/05 2013/04/05 東京海洋大学
2119 2012JP077437 WO 2013/061989 世界知的所有権機関(WIPO) CENTER-OF-GRAVITY DETECTION SYSTEM 2013/05/15 2013/05/15 東京海洋大学
2120 2012JP081322 WO 2013/084857 世界知的所有権機関(WIPO) ROLLOVER LIMIT DETECTION SYSTEM 2013/06/27 2013/06/27 東京海洋大学
2121 2012JP082557 WO 2013/089244 世界知的所有権機関(WIPO) CONTROLLER FOR SHIP PROPULSION DEVICE AND SHIP PROPULSION SYSTEM USING SAME 2013/07/16 2013/07/16 東京海洋大学
2122 2013JP002024 WO 2013/145703 世界知的所有権機関(WIPO) IMPROVEMENT TO SURVIVAL RATE OF SEPARATED GERM CELLS IMPLANTED INTO HOST FISH GONADS 2013/10/16 2013/10/16 東京海洋大学
2123 2013JP063647 WO 2013/172408 世界知的所有権機関(WIPO) OVERTURN RISK CALCULATION SYSTEM 2013/12/16 2013/12/16 東京海洋大学
2124 2013JP070940 WO 2014024780 世界知的所有権機関(WIPO) COATING METHOD AND DEVICE, AND COATING MEMBER 2014/09/26 2015/08/24 東京海洋大学
2125 2013JP071294 WO 2014024899 世界知的所有権機関(WIPO) SURFACE MODIFICATION METHOD FOR CARBON STEEL 2014/09/26 2015/08/24 東京海洋大学
2126 2013JP005257 WO 2014041768 世界知的所有権機関(WIPO) SUPERCONDUCTING FIELD-POLE MAGNET 2014/10/28 2015/08/24 東京海洋大学
2127 2013JP071790 WO 2014041937 世界知的所有権機関(WIPO) METHOD FOR IDENTIFYING HYPOXIA-TOLERANT FLOUNDER 2014/10/28 2015/08/24 東京海洋大学
2128 2013JP074075 WO 2014038662 世界知的所有権機関(WIPO) DNA VACCINE AGAINST PSEUDOTUBERCULOSIS IN MARINE FISH 2014/10/30 2019/04/23 東京海洋大学
2129 2014JP001466 WO 2014148023 世界知的所有権機関(WIPO) METHOD FOR INCREASING INTRAMUSCULAR LIPID CONTENT IN REARED FISH, AND FEED THEREFOR 2015/04/15 2015/08/24 東京海洋大学
2130 2014JP070496 WO 2015016379 世界知的所有権機関(WIPO) UNDERWATER COMMUNICATION SYSTEM 2015/04/23 2015/08/24 東京海洋大学
2131 2014JP078017 WO 2015060319 世界知的所有権機関(WIPO) LOADING WEIGHT DETECTION DEVICE 2015/07/13 2015/08/24 東京海洋大学
2132 2015JP059155 WO 2015147068 世界知的所有権機関(WIPO) RADIAL-GAP-TYPE SUPERCONDUCTING SYNCHRONOUS MACHINE, MAGNETIZATION DEVICE, AND MAGNETIZATION METHOD 2015/11/20 2015/11/20 東京海洋大学
2133 2015JP001747 WO 2015146184 世界知的所有権機関(WIPO) METHOD FOR PRODUCING FISH GAMETES FOR FARMED FISH PRODUCTION USING SURROGATE PARENT FISH, APPLICABLE TO SURROGATE PARENT FISH OF DIFFERENT SPECIES 2015/11/20 2015/11/20 東京海洋大学
2134 2015JP000787 WO 2015129213 世界知的所有権機関(WIPO) METHOD FOR REDUCING LIPID CONTENT OF REARED FISH, AND FEEDSTUFF FOR SAID METHOD 2016/03/24 2016/03/24 東京海洋大学
2135 2015JP055070 WO 2015125961 世界知的所有権機関(WIPO) NOROVIRUS INACTIVATOR AND METHOD FOR PRODUCING SAME, METHOD FOR INACTIVATING NOROVIRUS, METHOD FOR PRODUCING LYSOZYME COMPONENT FOR NOROVIRUS INACTIVATION USE, PROPHYLACTIC OR THERAPEUTIC AGENT FOR NOROVIRUS INFECTION, AND EXTERNAL PREPARATION FOR SKIN FOR NOROVIRUS INACTIVATION PURPOSES 2016/03/24 2016/03/24 東京海洋大学
2136 2015JP001690 WO 2016042684 世界知的所有権機関(WIPO) METHOD FOR INDUCING DIFFERENTIATION INTO GERMLINE USING CONCENTRATED UNDIFFERENTIATED GERM CELLS HAVING ENGRAFTMENT ABILITY 2016/06/02 2016/06/02 東京海洋大学
2137 2015JP082044 WO 2016076433 世界知的所有権機関(WIPO) OXIDE SUPERCONDUCTING BULK MAGNET 2016/08/10 2016/08/10 東京海洋大学
2138 2015JP078083 WO 2016052737 世界知的所有権機関(WIPO) UNDERWATER PROPULSION DEVICE AND UNDERWATER SEARCH DEVICE 2016/11/25 2019/04/23 東京海洋大学
2139 2016JP059551 WO 2016153019 世界知的所有権機関(WIPO) TRANSPLANT FISH PRODUCTION METHOD, TRANSPLANT FISH, HYBRID FISH SPECIES PRODUCTION METHOD, AND HYBRID FISH SPECIES 2016/11/29 2019/02/01 東京海洋大学
2140 2016JP083548 WO 2017110296 世界知的所有権機関(WIPO) Denitrification device and aquatic organism rearing system 2017/07/13 2017/07/13 東京海洋大学
2141 2016JP003565 WO 2017038004 世界知的所有権機関(WIPO) ROTATING MACHINE 2017/09/14 2019/04/23 東京海洋大学
2142 2016JP003564 WO 2017038003 世界知的所有権機関(WIPO) ROTATING MACHINE 2017/09/14 2019/04/23 東京海洋大学
2143 2017JP012111 WO 2017164390 世界知的所有権機関(WIPO) ANTIBODY CAPABLE OF BINDING TO UNDIFFERENTIATED GERM CELLS OF SCOMBRIDAE FISH 2017/10/24 2017/10/24 東京海洋大学
2144 2017JP012112 WO 2017164391 世界知的所有権機関(WIPO) MARKER FOR IDENTIFYING GERM CELLS HAVING ENGRAFTABILITY AT HOST GONAD 2017/10/24 2019/04/23 東京海洋大学
2145 2017JP023930 WO 2018008511 世界知的所有権機関(WIPO) METHOD FOR DISCRIMINATING EPINEPHELUS FUSCOGUTTATUS HAVING GENETIC TRAIT OF HIGH GROWTH 2018/04/19 2018/04/19 東京海洋大学
2146 2018JP011789 WO 2018174258 世界知的所有権機関(WIPO) AQUATIC ANIMAL ESCAPE DEVICE AND FIXED NET 2018/11/02 2019/04/23 東京海洋大学
2147 2018JP021145 WO 2018221716 世界知的所有権機関(WIPO) FEED CONTAINING IGY ANTIBODY PROVIDING PROTECTIVE EFFECT AGAINST EMS/AHPND 2019/05/07 2019/05/07 東京海洋大学
2148 2019JP014750 WO 2019202981 世界知的所有権機関(WIPO) SCALE THICKNESS ESTIMATION SYSTEM, SCALE THICKNESS ESTIMATION METHOD, AND SCALE THICKNESS ESTIMATION PROGRAM 2020/07/28 2020/07/28 東京海洋大学
2149 2008JP072123 WO 2009/072590 世界知的所有権機関(WIPO) BRANCHED POLYALKYLENE GLYCOL DERIVATIVE, PHOTOSENSITIVE COMPOSITION, CROSSLINKED MATERIAL, AND SUBSTRATE 2010/08/31 2010/08/27 東京理科大学
2150 2008JP066384 WO 2009/035020 世界知的所有権機関(WIPO) NOVEL DIHYDRONAPHTHALENE COMPOUND AND USE THEREOF 2010/08/31 2010/08/27 東京理科大学
2151 2007JP065667 WO 2008/018570 世界知的所有権機関(WIPO) ANTIREFLECTION STRUCTURE, PROCESS FOR PRODUCING THE SAME AND PROCESS FOR PRODUCING OPTICAL MEMBER 2011/03/14 2011/05/23 東京理科大学
2152 2008JP054074 WO 2008/108438 世界知的所有権機関(WIPO) SILANE COUPLING AGENTS WITH HEAT RESISTANCE, DURABILITY, RELEASABILITY, AND ANTIFOULING PROPERTY AND PROCESS FOR PRODUCING THESE COMPOUNDS 2011/03/14 2011/03/18 東京理科大学
2153 2008JP058743 WO 2008/140074 世界知的所有権機関(WIPO) METHOD FOR PRODUCTION OF OPTICALLY ACTIVE CARBOXYLIC ACID ESTER 2011/12/09 2011/12/28 東京理科大学
2154 2010JP053789 WO 2010/104034 世界知的所有権機関(WIPO) METHOD FOR PRODUCING OPTICALLY ACTIVE 2-HYDROXY ESTER AND NOVEL INTERMEDIATE COMPOUND 2012/02/06 2012/03/01 東京理科大学
2155 2010JP002149 WO 2010/109889 世界知的所有権機関(WIPO) SODIUM ION SECONDARY BATTERY 新技術説明会 2012/02/14 2012/03/01 東京理科大学
2156 2011JP068585 WO 2012/029539 世界知的所有権機関(WIPO) METHOD OF SCREENING FOR PLANT DEFENSE ACTIVATORS, PLANT DEFENSE ACTIVATORS, AND METHOD OF ENHANCING IMMUNE RESPONSE 2012/02/24 2012/03/16 東京理科大学
2157 2010JP068868 WO 2011/052545 世界知的所有権機関(WIPO) METHOD FOR PRODUCING ANTIGEN-SPECIFIC B CELL POPULATION 2012/02/28 2012/03/01 東京理科大学
2158 2010JP072916 WO 2011/078126 世界知的所有権機関(WIPO) TN LIQUID CRYSTAL ELEMENT, AND METHOD FOR PRODUCING SAME 新技術説明会 2012/03/26 2012/04/05 東京理科大学
2159 2011JP055075 WO 2011/148686 世界知的所有権機関(WIPO) METHOD FOR PRODUCTION OF THERMOELECTRIC CONVERSION MODULE, AND THERMOELECTRIC CONVERSION MODULE 2012/05/07 2012/05/31 東京理科大学
2160 2010JP068755 WO 2011/052514 世界知的所有権機関(WIPO) LIGHT-EMITTING GLASS, LIGHT-EMITTING DEVICE EQUIPPED WITH THE LIGHT-EMITTING GLASS, AND PROCESS FOR PRODUCING LIGHT-EMITTING GLASS 新技術説明会 2012/05/14 2012/05/31 東京理科大学
2161 2012JP052565 WO 2012/105707 世界知的所有権機関(WIPO) METHOD OF TREATING ISCHEMIA/REPERFUSION INJURY 2013/03/22 2013/03/22 東京理科大学
2162 2011JP054976 WO 2012/117562 世界知的所有権機関(WIPO) METHOD FOR MANUFACTURING NANOPARTICLE DISPERSION LIQUID 2013/04/26 2013/04/26 東京理科大学
2163 2012JP056186 WO 2012124641 世界知的所有権機関(WIPO) ACTIVITY ENHANCER FOR ANTICANCER AGENT 2013/04/26 2019/04/24 東京理科大学
2164 2012JP064647 WO 2012169575 世界知的所有権機関(WIPO) METHOD FOR MANUFACTURING OPTICALLY ACTIVE CARBOXYLIC ACID ESTER 2013/06/20 2019/04/24 東京理科大学
2165 2012JP074962 WO 2013/047698 世界知的所有権機関(WIPO) OPTICAL INTERFEROMETER, INFORMATION ACQUISITION APPARATUS, AND INFORMATION ACQUISITION METHOD 新技術説明会 2013/08/13 2013/08/13 東京理科大学
2166 2011JP074950 WO 2012/060295 世界知的所有権機関(WIPO) COMPOSITE METAL OXIDE, PROCESS FOR PRODUCING THE COMPOSITE METAL OXIDE, POSITIVE ACTIVE MATERIAL FOR SODIUM SECONDARY BATTERY, POSITIVE ELECTRODE FOR SODIUM SECONDARY BATTERY, AND SODIUM SECONDARY BATTERY 新技術説明会 2013/08/13 2013/08/13 東京理科大学
2167 2013JP055226 WO 2014006932 世界知的所有権機関(WIPO) THERMOELECTRIC CONVERSION MATERIAL AND THERMOELECTRIC CONVERSION ELEMENT 2015/01/23 2015/08/21 東京理科大学
2168 2014JP076991 WO 2015053338 世界知的所有権機関(WIPO) CATIONIC PEPTIDE AND PHARMACEUTICAL COMPOSITION CONTAINING SAME 2015/11/26 2019/04/24 東京理科大学
2169 2014JP056220 WO 2014136982 世界知的所有権機関(WIPO) LACTOBACILLUS PROLIFERATION PROMOTER, REGULATORY T CELL PROLIFERATION AGENT, LACTOBACILLUS PROLIFERATION PROMOTING METHOD, METHOD FOR PROLIFERATION OF REGULATORY T CELLS, METHOD FOR EVALUATING EFFECTIVENESS OF REGULATORY T CELL PROLIFERATION, AND METHOD FOR EVALUATING EFFECTIVENESS OF LACTOBACILLUS PROLIFERATION PROMOTION 2016/01/27 2016/01/27 東京理科大学
2170 2015JP052882 WO 2015115650 世界知的所有権機関(WIPO) METHOD FOR PRODUCING OPTICALLY ACTIVE CARBOXYLIC ACID ESTER 2016/03/24 2016/03/24 東京理科大学
2171 2015JP078841 WO 2016056661 世界知的所有権機関(WIPO) BLACK PHOSPHORUS ATOM FILM, THERMOELECTRIC MATERIAL, THERMOELECTRIC CONVERSION ELEMENT, AND SEMICONDUCTOR ELEMENT 2016/08/09 2016/08/09 東京理科大学
2172 2015JP080469 WO 2016068220 世界知的所有権機関(WIPO) METHOD FOR PRODUCING EUSHEARILIDES 2016/08/10 2016/08/10 東京理科大学
2173 2015JP075128 WO 2016059907 世界知的所有権機関(WIPO) NEGATIVE ELECTRODE FOR POTASSIUM ION SECONDARY BATTERIES, NEGATIVE ELECTRODE FOR POTASSIUM ION CAPACITORS, POTASSIUM ION SECONDARY BATTERY, POTASSIUM ION CAPACITOR, AND BINDER FOR NEGATIVE ELECTRODES OF POTASSIUM ION SECONDARY BATTERIES OR NEGATIVE ELECTRODES OF POTASSIUM ION CAPACITORS 2016/09/14 2016/09/14 東京理科大学
2174 2016JP055016 WO 2016136656 世界知的所有権機関(WIPO) METHOD FOR GENERATING MECHANICAL AND ELECTROCHEMICAL CAVITATION, METHOD FOR CHANGING GEOMETRIC SHAPE AND ELECTROCHEMICAL PROPERTIES OF SUBSTANCE SURFACE, METHOD FOR PEELING OFF RARE METAL, MECHANICAL AND ELECTROCHEMICAL CAVITATION GENERATOR, AND METHOD FOR GENERATING NUCLEAR FUSION REACTION OF DEUTERIUM 2016/10/05 2019/02/01 東京理科大学
2175 2016JP051934 WO 2016129363 世界知的所有権機関(WIPO) CALCULATING DEVICE RELATING TO CONCEALMENT COMPUTATION SYSTEM EMPLOYING DISTRIBUTION OF SECRETS 新技術説明会 2016/10/06 2019/02/01 東京理科大学
2176 2016JP080628 WO 2017065306 世界知的所有権機関(WIPO) SEMICONDUCTOR MATERIAL, METHOD FOR GENERATING CARRIER IN ELECTROCONDUCTIVE LAYER, THERMOELECTRIC CONVERSION ELEMENT, AND SWITCHING ELEMENT 2017/05/30 2017/05/30 東京理科大学
2177 2016JP066795 WO 2016199732 世界知的所有権機関(WIPO) POSITIVE ELECTRODE ACTIVE MATERIAL FOR MAGNESIUM SECONDARY CELL, POSITIVE ELECTRODE FOR MAGNESIUM SECONDARY CELL, AND MAGNESIUM SECONDARY CELL 新技術説明会 2017/07/20 2019/01/30 東京理科大学
2178 2017JP001996 WO 2017126683 世界知的所有権機関(WIPO) TRANSMISSION TYPE THIN FILM SOLAR CELL 2017/08/16 2017/08/16 東京理科大学
2179 2017JP030994 WO 2018047681 世界知的所有権機関(WIPO) NOVEL COMPOUND, COMPOSITION, PHOTOCHROMIC MATERIAL, AND PHOTO-INTERFACIAL PROPERTY-CONTROLLING AGENT 新技術説明会 2018/04/19 2019/04/24 東京理科大学
2180 2017JP023822 WO 2018003886 世界知的所有権機関(WIPO) OMNIDIRECTIONAL MOVEMENT DEVICE AND ORIENTATION CONTROL METHOD 2018/04/20 2018/04/20 東京理科大学
2181 2017JP042106 WO 2018097211 世界知的所有権機関(WIPO) IMAGE RECOVERY DEVICE, METHOD, AND PROGRAM 新技術説明会 2018/07/24 2018/07/24 東京理科大学
2182 2017JP039187 WO 2018084120 世界知的所有権機関(WIPO) BENZOIC ACID DERIVATIVE AND DEHYDRATION-CONDENSATION AGENT, AND METHODS FOR PRODUCING ESTER AND LACTONE 2018/07/31 2018/07/31 東京理科大学
2183 2017JP041726 WO 2018097109 世界知的所有権機関(WIPO) POSITIVE ELECTRODE ACTIVE MATERIAL FOR POTASSIUM ION BATTERY, POSITIVE ELECTRODE FOR POTASSIUM ION BATTERY, AND POTASSIUM ION BATTERY 2018/07/31 2018/07/31 東京理科大学
2184 2017JP024671 WO 2018012369 世界知的所有権機関(WIPO) POLYCRYSTALLINE MAGNESIUM SILICIDE AND USE THEREOF 2018/11/01 2019/02/01 東京理科大学
2185 2018JP001621 WO 2018135627 世界知的所有権機関(WIPO) ELECTROLYTE SOLUTION FOR POTASSIUM ION BATTERIES, POTASSIUM ION BATTERY, ELECTROLYTE SOLUTION FOR POTASSIUM ION CAPACITORS, AND POTASSIUM ION CAPACITOR 2018/11/02 2019/02/01 東京理科大学
2186 2017JP040469 WO 2018088491 世界知的所有権機関(WIPO) POLYMERIZABLE COMPOUND, COMPOUND, AND METHOD FOR PRODUCING BORANOPHOSPHATE OLIGOMER 2019/01/22 2019/01/22 東京理科大学
2187 2018JP016001 WO 2018194092 世界知的所有権機関(WIPO) EXO-β-1,2-GLUCANASE AND METHOD FOR PRODUCING SOPHOROSE 2019/01/22 2019/04/24 東京理科大学
2188 2018JP018611 WO 2018216530 世界知的所有権機関(WIPO) OMNIDIRECTIONAL MOVING DEVICE AND METHOD FOR CONTROLLING ATTITUDE THEREOF 2019/04/25 2019/04/25 東京理科大学
2189 2018JP018610 WO 2018207949 世界知的所有権機関(WIPO) MEDICINAL COMPOSITION COMPRISING SUGAR CHAIN MODIFYING ENZYME AND METHOD FOR CURING DENDRITIC CELL IMMUNORECEPTOR-RELATED DISEASE USING MEDICINAL COMPOSITION 2019/05/07 2019/05/07 東京理科大学
2190 2018JP032517 WO 2019097815 世界知的所有権機関(WIPO) ELECTRODE MATERIAL FOR CAPACITOR 新技術説明会 2019/09/18 2019/10/23 東京理科大学
2191 2018JP045505 WO 2019124164 世界知的所有権機関(WIPO) ENCRYPTED DATA PROCESSING SYSTEM AND PROGRAM 2019/10/24 2019/10/24 東京理科大学
2192 2019JP003267 WO 2019151360 世界知的所有権機関(WIPO) LYOTROPIC LIQUID CRYSTAL MATERIAL, LYOTROPIC LIQUID CRYSTAL FILM AND METHOD FOR PRODUCING SAME, SENSOR AND OPTICAL ELEMENT 新技術説明会 2019/10/24 2019/10/24 東京理科大学
2193 2019JP004980 WO 2019159925 世界知的所有権機関(WIPO) CHONDROCYTE PROLIFERATION PROMOTER, CHONDROCYTE PROLIFERATION PROMOTION METHOD, SCREENING METHOD FOR CHONDROCYTE PROLIFERATION PROMOTERS 2019/10/25 2019/10/25 東京理科大学
2194 2019JP013328 WO 2019189444 世界知的所有権機関(WIPO) LIQUID-CRYSTAL MATERIAL, LIQUID-CRYSTAL FILM, METHOD FOR PRODUCING SAME, SENSOR, AND OPTICAL ELEMENT 新技術説明会 2019/10/30 2019/10/30 東京理科大学
2195 2019JP018289 WO 2019216321 世界知的所有権機関(WIPO) PHOTOREACTIVE COMPOSITION, REACTION PRODUCT, AND METHOD FOR PRODUCING REACTION PRODUCT 2020/01/30 2020/01/30 東京理科大学
2196 2019JP018787 WO 2019216422 世界知的所有権機関(WIPO) REGULATORY-T-CELL-INCREASING AGENT, CLOSTRIDIUM CLUSTER XIVa GROWTH PROMOTER, AND COMPOSITION FOR PREVENTION, TREATMENT, OR IMPROVEMENT OF INFLAMMATORY OR ALLERGIC DISEASE OR SYMPTOM 2020/01/30 2020/01/30 東京理科大学
2197 2019JP020099 WO 2019225600 世界知的所有権機関(WIPO) METHOD FOR EVALUATING HYDROGEL 2020/01/30 2020/01/30 東京理科大学
2198 2019JP018010 WO 2019216278 世界知的所有権機関(WIPO) QUANTUM COMPUTING SYSTEM AND USE METHOD FOR QUANTUM COMPUTING SYSTEM 2020/06/02 2020/06/02 東京理科大学
2199 2019JP027480 WO 2020013271 世界知的所有権機関(WIPO) SCREENING METHOD FOR ANTI-OBESITY SUBSTANCE, AND KIT FOR SCREENING FOR ANTI-OBESITY SUBSTANCE 2020/06/03 2020/06/03 東京理科大学
2200 2019JP050992 WO 2020138228 世界知的所有権機関(WIPO) JASMONIC ACID ENDOGENY PROMOTING AGENT, AND METHOD FOR PROMOTING JASMONIC ACID ENDOGENY 新技術説明会 2020/07/29 2020/07/29 東京理科大学

PAGE TOP